createdAt,value
2022-09-15T00:02:05.060Z,12.65
2022-09-15T00:04:40.821Z,12.64
2022-09-15T00:07:09.722Z,12.63
2022-09-15T00:09:39.430Z,12.62
2022-09-15T00:12:10.364Z,12.59
2022-09-15T00:14:38.580Z,12.61
2022-09-15T00:17:09.938Z,12.60
2022-09-15T00:19:41.078Z,12.61
2022-09-15T00:22:14.762Z,12.63
2022-09-15T00:24:49.662Z,12.66
2022-09-15T00:27:22.747Z,12.66
2022-09-15T00:29:51.728Z,12.66
2022-09-15T00:33:05.504Z,12.64
2022-09-15T00:35:47.720Z,12.61
2022-09-15T00:38:17.770Z,12.58
2022-09-15T00:40:56.743Z,12.55
2022-09-15T00:43:43.645Z,12.52
2022-09-15T00:46:15.870Z,12.53
2022-09-15T00:49:12.293Z,12.53
2022-09-15T00:51:47.609Z,12.50
2022-09-15T00:54:48.203Z,12.51
2022-09-15T00:57:23.818Z,12.51
2022-09-15T01:00:00.782Z,12.52
2022-09-15T01:02:37.001Z,12.53
2022-09-15T01:05:12.164Z,12.54
2022-09-15T01:07:46.751Z,12.53
2022-09-15T01:10:21.222Z,12.52
2022-09-15T01:12:49.978Z,12.51
2022-09-15T01:15:28.025Z,12.51
2022-09-15T01:18:03.048Z,12.50
2022-09-15T01:20:58.490Z,12.48
2022-09-15T01:23:51.334Z,12.47
2022-09-15T01:26:27.747Z,12.45
2022-09-15T01:29:21.819Z,12.45
2022-09-15T01:32:18.175Z,12.45
2022-09-15T01:35:16.069Z,12.44
2022-09-15T01:38:00.247Z,12.46
2022-09-15T01:40:37.904Z,12.44
2022-09-15T01:43:12.183Z,12.42
2022-09-15T01:45:47.467Z,12.43
2022-09-15T01:48:19.375Z,12.42
2022-09-15T01:50:51.847Z,12.42
2022-09-15T01:53:26.849Z,12.42
2022-09-15T01:56:05.442Z,12.42
2022-09-15T01:58:35.231Z,12.40
2022-09-15T02:01:14.762Z,12.40
2022-09-15T02:03:55.831Z,12.38
2022-09-15T02:06:36.975Z,12.37
2022-09-15T02:09:22.257Z,12.35
2022-09-15T02:12:27.261Z,12.34
2022-09-15T02:15:17.329Z,12.34
2022-09-15T02:17:56.527Z,12.32
2022-09-15T02:20:39.171Z,12.30
2022-09-15T02:23:19.277Z,12.28
2022-09-15T02:25:57.591Z,12.27
2022-09-15T02:28:35.221Z,12.24
2022-09-15T02:31:11.154Z,12.22
2022-09-15T02:33:52.153Z,12.21
2022-09-15T02:36:26.927Z,12.19
2022-09-15T02:39:16.731Z,12.18
2022-09-15T02:41:53.119Z,12.18
2022-09-15T02:44:30.927Z,12.18
2022-09-15T02:47:04.109Z,12.19
2022-09-15T02:49:35.422Z,12.19
2022-09-15T02:52:18.077Z,12.19
2022-09-15T02:54:49.827Z,12.18
2022-09-15T02:57:21.508Z,12.19
2022-09-15T03:00:13.506Z,12.16
2022-09-15T03:02:45.007Z,12.13
2022-09-15T03:05:28.886Z,12.11
2022-09-15T03:08:03.952Z,12.10
2022-09-15T03:10:46.398Z,12.08
2022-09-15T03:13:15.440Z,12.06
2022-09-15T03:15:44.168Z,12.07
2022-09-15T03:18:13.681Z,12.07
2022-09-15T03:20:49.897Z,12.07
2022-09-15T03:23:18.753Z,12.05
2022-09-15T03:25:49.290Z,12.03
2022-09-15T03:28:24.514Z,12.03
2022-09-15T03:31:13.476Z,12.02
2022-09-15T03:33:51.370Z,12.00
2022-09-15T03:36:21.254Z,11.99
2022-09-15T03:38:54.164Z,11.98
2022-09-15T03:41:28.062Z,11.97
2022-09-15T03:44:06.284Z,11.96
2022-09-15T03:46:36.194Z,11.95
2022-09-15T03:49:16.559Z,11.95
2022-09-15T03:51:46.062Z,11.95
2022-09-15T03:54:15.966Z,11.93
2022-09-15T03:57:01.432Z,11.92
2022-09-15T03:59:32.726Z,11.91
2022-09-15T04:02:13.441Z,11.88
2022-09-15T04:04:42.298Z,11.87
2022-09-15T04:07:13.653Z,11.85
2022-09-15T04:09:53.477Z,11.84
2022-09-15T04:12:25.069Z,11.81
2022-09-15T04:14:58.689Z,11.80
2022-09-15T04:17:30.587Z,11.78
2022-09-15T04:20:01.187Z,11.76
2022-09-15T04:22:46.925Z,11.75
2022-09-15T04:25:15.319Z,11.75
2022-09-15T04:27:45.035Z,11.76
2022-09-15T04:30:13.890Z,11.75
2022-09-15T04:32:43.212Z,11.75
2022-09-15T04:35:15.743Z,11.75
2022-09-15T04:37:44.369Z,11.75
2022-09-15T04:40:22.233Z,11.75
2022-09-15T04:43:00.183Z,11.77
2022-09-15T04:45:31.087Z,11.78
2022-09-15T04:48:10.639Z,11.78
2022-09-15T04:50:40.985Z,11.80
2022-09-15T04:53:12.110Z,11.81
2022-09-15T04:55:43.386Z,11.82
2022-09-15T04:58:11.768Z,11.83
2022-09-15T05:00:45.073Z,11.82
2022-09-15T05:03:14.979Z,11.81
2022-09-15T05:05:43.988Z,11.82
2022-09-15T05:08:13.437Z,11.83
2022-09-15T05:10:42.607Z,11.84
2022-09-15T05:13:11.197Z,11.86
2022-09-15T05:15:45.965Z,11.88
2022-09-15T05:18:14.635Z,11.90
2022-09-15T05:20:49.009Z,11.93
2022-09-15T05:23:17.265Z,11.93
2022-09-15T05:25:59.915Z,11.94
2022-09-15T05:28:34.415Z,11.98
2022-09-15T05:31:12.101Z,12.02
2022-09-15T05:33:45.317Z,12.06
2022-09-15T05:36:23.717Z,12.11
2022-09-15T05:38:59.267Z,12.15
2022-09-15T05:41:32.035Z,12.19
2022-09-15T05:44:01.009Z,12.20
2022-09-15T05:46:32.674Z,12.21
2022-09-15T05:49:01.101Z,12.25
2022-09-15T05:51:30.474Z,12.30
2022-09-15T05:53:58.676Z,12.35
2022-09-15T05:56:26.913Z,12.41
2022-09-15T05:58:55.103Z,12.44
2022-09-15T06:01:25.787Z,12.50
2022-09-15T06:03:55.259Z,12.56
2022-09-15T06:06:25.547Z,12.60
2022-09-15T06:08:58.365Z,12.63
2022-09-15T06:11:30.571Z,12.65
2022-09-15T06:14:00.399Z,12.65
2022-09-15T06:16:32.707Z,12.68
2022-09-15T06:19:01.798Z,12.66
2022-09-15T06:21:32.666Z,12.66
2022-09-15T06:24:45.421Z,12.68
2022-09-15T06:28:03.881Z,12.69
2022-09-15T06:30:54.507Z,12.70
2022-09-15T06:33:24.183Z,12.71
2022-09-15T06:35:52.599Z,12.74
2022-09-15T06:38:21.047Z,12.78
2022-09-15T06:40:59.311Z,12.78
2022-09-15T06:43:27.695Z,12.79
2022-09-15T06:46:26.090Z,12.84
2022-09-15T06:48:55.204Z,12.83
2022-09-15T06:51:28.610Z,12.89
2022-09-15T06:53:57.607Z,12.94
2022-09-15T06:56:38.590Z,12.99
2022-09-15T06:59:07.587Z,13.03
2022-09-15T07:01:40.469Z,13.06
2022-09-15T07:04:12.908Z,13.06
2022-09-15T07:06:42.370Z,13.07
2022-09-15T07:09:11.561Z,13.07
2022-09-15T07:11:40.563Z,13.12
2022-09-15T07:14:11.114Z,13.16
2022-09-15T07:16:44.430Z,13.20
2022-09-15T07:19:13.133Z,13.25
2022-09-15T07:21:41.689Z,13.29
2022-09-15T07:24:16.656Z,13.29
2022-09-15T07:26:45.416Z,13.26
2022-09-15T07:29:14.140Z,13.26
2022-09-15T07:31:42.820Z,13.26
2022-09-15T07:34:11.655Z,13.26
2022-09-15T07:36:42.599Z,13.32
2022-09-15T07:39:11.107Z,13.33
2022-09-15T07:41:39.929Z,13.30
2022-09-15T07:44:13.379Z,13.30
2022-09-15T07:46:41.783Z,13.28
2022-09-15T07:49:17.811Z,13.28
2022-09-15T07:51:46.121Z,13.28
2022-09-15T07:54:17.247Z,13.34
2022-09-15T07:56:49.499Z,13.39
2022-09-15T07:59:21.576Z,13.44
2022-09-15T08:01:52.616Z,13.45
2022-09-15T08:04:20.784Z,13.47
2022-09-15T08:06:49.659Z,13.49
2022-09-15T08:09:18.153Z,13.49
2022-09-15T08:11:59.675Z,13.50
2022-09-15T08:14:27.973Z,13.44
2022-09-15T08:16:56.817Z,13.43
2022-09-15T08:19:25.591Z,13.48
2022-09-15T08:21:53.897Z,13.54
2022-09-15T08:24:22.913Z,13.61
2022-09-15T08:26:52.049Z,13.65
2022-09-15T08:29:21.511Z,13.72
2022-09-15T08:31:50.042Z,13.79
2022-09-15T08:34:18.455Z,13.93
2022-09-15T08:36:46.740Z,14.10
2022-09-15T08:39:15.487Z,14.29
2022-09-15T08:41:48.474Z,14.48
2022-09-15T08:44:28.689Z,14.52
2022-09-15T08:47:05.557Z,14.68
2022-09-15T08:49:51.161Z,14.84
2022-09-15T08:52:39.970Z,15.13
2022-09-15T08:55:27.004Z,15.33
2022-09-15T08:57:55.805Z,15.47
2022-09-15T09:00:24.208Z,15.68
2022-09-15T09:03:21.838Z,15.66
2022-09-15T09:06:22.841Z,15.68
2022-09-15T09:09:31.507Z,15.87
2022-09-15T09:12:33.224Z,15.99
2022-09-15T09:15:13.994Z,16.12
2022-09-15T09:17:56.102Z,16.14
2022-09-15T09:20:34.513Z,16.29
2022-09-15T09:23:08.279Z,16.33
2022-09-15T09:25:37.105Z,16.37
2022-09-15T09:28:09.262Z,16.54
2022-09-15T09:30:37.987Z,16.74
2022-09-15T09:33:31.567Z,16.84
2022-09-15T09:36:04.068Z,16.94
2022-09-15T09:38:39.997Z,16.72
2022-09-15T09:41:14.824Z,16.50
2022-09-15T09:43:46.485Z,16.55
2022-09-15T09:46:18.060Z,16.63
2022-09-15T09:48:50.438Z,16.80
2022-09-15T09:51:49.022Z,16.97
2022-09-15T09:54:18.309Z,17.01
2022-09-15T09:56:53.826Z,17.10
2022-09-15T09:59:50.086Z,17.03
2022-09-15T10:02:25.623Z,16.92
2022-09-15T10:05:06.333Z,16.84
2022-09-15T10:07:41.132Z,16.67
2022-09-15T10:10:24.134Z,16.47
2022-09-15T10:12:57.041Z,16.39
2022-09-15T10:15:32.236Z,16.34
2022-09-15T10:18:03.424Z,16.28
2022-09-15T10:20:36.922Z,16.29
2022-09-15T10:23:21.742Z,16.34
2022-09-15T10:25:59.434Z,16.40
2022-09-15T10:28:29.073Z,16.50
2022-09-15T10:31:08.383Z,16.66
2022-09-15T10:33:42.840Z,16.74
2022-09-15T10:36:13.685Z,16.74
2022-09-15T10:39:23.412Z,16.67
2022-09-15T10:42:30.864Z,17.06
2022-09-15T10:45:20.679Z,17.57
2022-09-15T10:48:10.872Z,17.96
2022-09-15T10:50:52.490Z,17.87
2022-09-15T10:53:48.743Z,17.69
2022-09-15T10:56:45.523Z,17.80
2022-09-15T11:00:13.608Z,17.82
2022-09-15T11:03:15.117Z,17.57
2022-09-15T11:06:14.015Z,17.09
2022-09-15T11:09:09.862Z,16.72
2022-09-15T11:11:50.687Z,16.49
2022-09-15T11:14:41.192Z,16.36
2022-09-15T11:17:15.589Z,16.31
2022-09-15T11:19:58.026Z,16.28
2022-09-15T11:22:37.618Z,16.26
2022-09-15T11:25:19.806Z,16.29
2022-09-15T11:28:25.614Z,16.32
2022-09-15T11:31:03.800Z,16.46
2022-09-15T11:33:43.603Z,16.45
2022-09-15T11:36:18.587Z,16.40
2022-09-15T11:39:22.670Z,16.31
2022-09-15T11:42:11.280Z,16.17
2022-09-15T11:44:43.355Z,16.07
2022-09-15T11:47:33.299Z,15.97
2022-09-15T11:50:28.605Z,15.86
2022-09-15T11:53:09.616Z,15.79
2022-09-15T11:55:48.635Z,15.73
2022-09-15T11:58:28.999Z,15.68
2022-09-15T12:01:03.513Z,15.63
2022-09-15T12:03:53.827Z,15.62
2022-09-15T12:06:45.349Z,15.59
2022-09-15T12:09:19.072Z,15.60
2022-09-15T12:11:55.902Z,15.63
2022-09-15T12:14:24.355Z,15.67
2022-09-15T12:16:53.597Z,15.68
2022-09-15T12:19:56.668Z,15.64
2022-09-15T12:22:42.074Z,15.64
2022-09-15T12:25:20.731Z,15.68
2022-09-15T12:28:26.946Z,15.63
2022-09-15T12:31:44.423Z,15.52
2022-09-15T12:34:24.945Z,15.50
2022-09-15T12:36:55.695Z,15.51
2022-09-15T12:39:29.165Z,15.55
2022-09-15T12:42:00.983Z,15.61
2022-09-15T12:44:35.704Z,15.67
2022-09-15T12:47:16.466Z,15.69
2022-09-15T12:49:48.149Z,15.70
2022-09-15T12:52:19.239Z,15.67
2022-09-15T12:55:03.041Z,15.67
2022-09-15T12:57:37.706Z,15.66
2022-09-15T13:01:14.346Z,15.64
2022-09-15T13:06:29.733Z,15.78
2022-09-15T13:09:01.746Z,15.85
2022-09-15T13:11:52.108Z,15.92
2022-09-15T13:14:42.212Z,15.97
2022-09-15T13:17:24.454Z,16.04
2022-09-15T13:20:11.205Z,16.13
2022-09-15T13:22:52.308Z,16.30
2022-09-15T13:25:30.395Z,16.40
2022-09-15T13:28:01.912Z,16.51
2022-09-15T13:31:02.737Z,16.75
2022-09-15T13:40:25.566Z,17.15
2022-09-15T13:43:37.475Z,17.21
2022-09-15T13:46:31.542Z,17.21
2022-09-15T13:49:33.081Z,16.98
2022-09-15T13:52:22.925Z,16.87
2022-09-15T13:55:18.930Z,16.86
2022-09-15T14:00:55.955Z,16.54
2022-09-15T14:03:34.229Z,16.46
2022-09-15T14:06:09.364Z,16.40
2022-09-15T14:08:42.650Z,16.36
2022-09-15T14:11:15.772Z,16.28
2022-09-15T14:13:47.602Z,16.20
2022-09-15T14:16:26.234Z,16.13
2022-09-15T14:18:58.685Z,16.05
2022-09-15T14:21:35.672Z,15.97
2022-09-15T14:24:20.834Z,15.96
2022-09-15T14:26:49.681Z,16.08
2022-09-15T14:29:26.954Z,16.56
2022-09-15T14:32:02.240Z,16.83
2022-09-15T14:34:37.293Z,16.75
2022-09-15T14:37:07.349Z,16.67
2022-09-15T14:39:37.982Z,16.74
2022-09-15T14:42:36.133Z,16.86
2022-09-15T14:48:02.042Z,16.76
2022-09-15T14:50:33.336Z,16.66
2022-09-15T14:53:36.402Z,16.53
2022-09-15T14:56:18.615Z,16.33
2022-09-15T14:58:53.041Z,16.26
2022-09-15T15:01:46.189Z,16.21
2022-09-15T15:04:28.654Z,16.21
2022-09-15T15:07:42.203Z,16.18
2022-09-15T15:10:24.709Z,16.16
2022-09-15T15:12:57.786Z,16.07
2022-09-15T15:15:28.390Z,16.07
2022-09-15T15:18:14.994Z,16.05
2022-09-15T15:20:50.533Z,16.06
2022-09-15T15:23:24.723Z,16.08
2022-09-15T15:25:54.266Z,16.07
2022-09-15T15:28:36.056Z,16.06
2022-09-15T15:31:31.984Z,16.01
2022-09-15T15:34:07.885Z,15.96
2022-09-15T15:36:36.709Z,15.95
2022-09-15T15:39:07.631Z,15.88
2022-09-15T15:41:42.348Z,15.84
2022-09-15T15:44:13.768Z,15.84
2022-09-15T15:47:16.538Z,15.79
2022-09-15T15:50:11.851Z,15.77
2022-09-15T15:52:35.250Z,15.79
2022-09-15T15:55:07.726Z,15.78
2022-09-15T15:57:58.780Z,15.76
2022-09-15T16:00:49.423Z,15.75
2022-09-15T16:03:22.174Z,15.72
2022-09-15T16:05:57.847Z,15.68
2022-09-15T16:08:32.478Z,15.64
2022-09-15T16:11:02.979Z,15.64
2022-09-15T16:13:34.044Z,15.60
2022-09-15T16:16:12.506Z,15.57
2022-09-15T16:18:41.003Z,15.57
2022-09-15T16:21:20.318Z,15.56
2022-09-15T16:23:48.560Z,15.54
2022-09-15T16:26:24.494Z,15.54
2022-09-15T16:28:53.416Z,15.56
2022-09-15T16:31:22.305Z,15.61
2022-09-15T16:33:50.996Z,15.62
2022-09-15T16:36:19.469Z,15.57
2022-09-15T16:38:47.877Z,15.50
2022-09-15T16:41:19.449Z,15.40
2022-09-15T16:43:50.001Z,15.35
2022-09-15T16:46:18.210Z,15.32
2022-09-15T16:48:49.435Z,15.25
2022-09-15T16:51:27.982Z,15.17
2022-09-15T16:53:58.154Z,15.09
2022-09-15T16:56:26.417Z,15.03
2022-09-15T16:58:59.825Z,14.94
2022-09-15T17:01:29.577Z,14.88
2022-09-15T17:03:58.082Z,14.82
2022-09-15T18:02:19.449Z,14.10
2022-09-15T18:04:48.567Z,14.12
2022-09-15T18:07:30.374Z,14.14
2022-09-15T18:09:59.306Z,14.16
2022-09-15T18:12:31.473Z,14.18
2022-09-15T18:15:04.350Z,14.18
2022-09-15T18:17:37.962Z,14.18
2022-09-15T18:20:12.738Z,14.19
2022-09-15T18:22:44.728Z,14.20
2022-09-15T18:25:29.154Z,14.21
2022-09-15T18:28:04.036Z,14.23
2022-09-15T18:30:41.338Z,14.23
2022-09-15T18:33:26.605Z,14.23
2022-09-15T18:35:57.347Z,14.22
2022-09-15T18:38:26.084Z,14.19
2022-09-15T18:40:56.766Z,14.16
2022-09-15T18:43:27.914Z,14.09
2022-09-15T18:46:01.609Z,14.04
2022-09-15T18:48:32.059Z,13.97
2022-09-15T18:51:00.363Z,13.91
2022-09-15T18:53:29.876Z,13.85
2022-09-15T18:55:59.195Z,13.84
2022-09-15T18:58:29.777Z,13.81
2022-09-15T19:01:01.203Z,13.78
2022-09-15T19:03:29.652Z,13.78
2022-09-15T19:06:04.036Z,13.79
2022-09-15T19:08:35.579Z,13.79
2022-09-15T19:11:04.670Z,13.78
2022-09-15T19:13:33.414Z,13.79
2022-09-15T19:16:08.870Z,13.79
2022-09-15T19:18:38.008Z,13.78
2022-09-15T19:21:10.667Z,13.81
2022-09-15T19:23:39.655Z,13.83
2022-09-15T19:26:13.828Z,13.82
2022-09-15T19:28:44.867Z,13.82
2022-09-15T19:31:16.644Z,13.83
2022-09-15T19:33:44.836Z,13.79
2022-09-15T19:36:29.184Z,13.76
2022-09-15T19:39:00.535Z,13.72
2022-09-15T19:41:29.258Z,13.67
2022-09-15T19:44:00.564Z,13.65
2022-09-15T19:46:29.095Z,13.61
2022-09-15T19:48:58.312Z,13.57
2022-09-15T19:51:27.443Z,13.55
2022-09-15T19:53:59.807Z,13.50
2022-09-15T19:56:29.793Z,13.41
2022-09-15T19:59:00.196Z,13.32
2022-09-15T20:01:30.339Z,13.24
2022-09-15T20:06:49.105Z,13.11
2022-09-15T20:09:18.636Z,13.08
2022-09-15T20:11:47.371Z,13.04
2022-09-15T20:14:16.348Z,13.01
2022-09-15T20:16:46.104Z,12.95
2022-09-15T20:19:15.013Z,12.91
2022-09-15T20:21:50.406Z,12.89
2022-09-15T20:24:22.707Z,12.88
2022-09-15T20:26:51.603Z,12.88
2022-09-15T20:29:22.217Z,12.89
2022-09-15T20:31:51.370Z,12.91
2022-09-15T20:34:24.228Z,12.89
2022-09-15T20:37:08.664Z,12.88
2022-09-15T20:39:48.830Z,12.87
2022-09-15T20:42:18.449Z,12.86
2022-09-15T20:44:47.468Z,12.85
2022-09-15T20:47:17.036Z,12.83
2022-09-15T20:49:46.217Z,12.81
2022-09-15T20:52:15.122Z,12.77
2022-09-15T20:54:46.340Z,12.73
2022-09-15T20:57:14.838Z,12.70
2022-09-15T20:59:43.289Z,12.67
2022-09-15T21:02:22.786Z,12.63
2022-09-15T21:04:54.059Z,12.58
2022-09-15T21:07:22.599Z,12.52
2022-09-15T21:09:51.361Z,12.46
2022-09-15T21:12:22.580Z,12.40
2022-09-15T21:14:51.974Z,12.36
2022-09-15T21:17:20.286Z,12.32
2022-09-15T21:19:49.207Z,12.28
2022-09-15T21:22:20.261Z,12.22
2022-09-15T21:24:49.153Z,12.16
2022-09-15T21:27:30.853Z,12.11
2022-09-15T21:29:59.420Z,12.08
2022-09-15T21:32:28.347Z,12.03
2022-09-15T21:34:56.660Z,12.00
2022-09-15T21:37:27.432Z,11.97
2022-09-15T21:39:56.191Z,11.94
2022-09-15T21:42:25.910Z,11.91
2022-09-15T21:44:54.706Z,11.90
2022-09-15T21:47:23.088Z,11.87
2022-09-15T21:49:52.006Z,11.84
2022-09-15T21:52:20.599Z,11.80
2022-09-15T21:54:49.424Z,11.78
2022-09-15T21:57:18.994Z,11.75
2022-09-15T21:59:47.510Z,11.71
2022-09-15T22:02:17.708Z,11.68
2022-09-15T22:04:46.075Z,11.66
2022-09-15T22:07:19.024Z,11.65
2022-09-15T22:09:47.627Z,11.62
2022-09-15T22:12:21.800Z,11.60
2022-09-15T22:14:50.527Z,11.58
2022-09-15T22:17:19.570Z,11.55
2022-09-15T22:19:47.808Z,11.54
2022-09-15T22:22:16.146Z,11.54
2022-09-15T22:24:45.381Z,11.53
2022-09-15T22:27:13.692Z,11.51
2022-09-15T22:29:44.487Z,11.50
2022-09-15T22:32:12.742Z,11.48
2022-09-15T22:34:47.029Z,11.46
2022-09-15T22:37:18.374Z,11.44
2022-09-15T22:39:58.882Z,11.42
2022-09-15T22:42:28.536Z,11.36
2022-09-15T22:44:57.212Z,11.34
2022-09-15T22:47:25.634Z,11.33
2022-09-15T22:49:57.068Z,11.31
2022-09-15T22:52:26.599Z,11.30
2022-09-15T22:54:58.157Z,11.28
2022-09-15T22:57:26.498Z,11.27
2022-09-15T22:59:55.309Z,11.24
2022-09-15T23:02:23.569Z,11.22
2022-09-15T23:04:51.695Z,11.19
2022-09-15T23:07:20.079Z,11.17
2022-09-15T23:09:48.171Z,11.14
2022-09-15T23:12:16.447Z,11.12
2022-09-15T23:14:44.512Z,11.11
2022-09-15T23:17:13.353Z,11.10
2022-09-15T23:19:41.910Z,11.09
2022-09-15T23:22:09.846Z,11.08
2022-09-15T23:24:37.965Z,11.06
2022-09-15T23:27:06.527Z,11.05
2022-09-15T23:29:34.500Z,11.05
2022-09-15T23:32:03.023Z,11.05
2022-09-15T23:34:31.329Z,11.06
2022-09-15T23:37:03.010Z,11.05
2022-09-15T23:39:31.222Z,11.05
2022-09-15T23:42:00.777Z,11.07
2022-09-15T23:44:28.834Z,11.08
2022-09-15T23:46:57.025Z,11.07
2022-09-15T23:49:25.218Z,11.05
2022-09-15T23:51:53.292Z,11.05
2022-09-15T23:54:21.426Z,11.05
2022-09-15T23:56:49.576Z,11.03
2022-09-15T23:59:17.903Z,11.01
